Crab Orchard, KY (40419)

6:39 PM EDT on July 27, 2016 (GMT -0400)
K. Bracketts Weather Station 39 N | | Change Station
Active Advisory: Flash Flood Watch

Elev 952 ft 37.47 °N, 84.51 °W | Updated 3 seconds ago

Overcast
Overcast
83.8 °F
Feels Like 91 °F
N
0.0
Wind Variable Wind from North
Gusts 0.0 mph

Today
High -- | Low -- °F
--% Chance of Precip.
Yesterday
High -- | Low -- °F
Precip. -- in
Pressure 29.98 in
Visibility 10.0 miles
Clouds Mostly Cloudy 6000 ft
Mostly Cloudy 8000 ft
Mostly Cloudy 11000 ft
Heat Index 91 °F
Dew Point 75 °F
Humidity 72%
Rainfall 0.04 in
Snow Depth Not available.
6:38 AM 8:50 PM
Last Quarter, 39% visible
METAR KDVK 272215Z AUTO 00000KT 10SM -DZ BKN060 BKN080 BKN110 27/23 A2998 RMK AO2
Pressure 29.98 in
Visibility 10.0 miles
Clouds Mostly Cloudy 6000 ft
Mostly Cloudy 8000 ft
Mostly Cloudy 11000 ft
Heat Index 91 °F
Dew Point 75 °F
Humidity 72%
Rainfall 0.04 in
Snow Depth Not available.
6:38 AM 8:50 PM
Last Quarter, 39% visible
METAR KDVK 272215Z AUTO 00000KT 10SM -DZ BKN060 BKN080 BKN110 27/23 A2998 RMK AO2

10-Day Weather Forecast

Almanac

Astronomy

Jul. 27, 2016 Rise Set
Actual Time
Civil Twilight
Nautical Twilight
Astronomical Twilight
Moon
Length of Visible Light
Length of Day
Tomorrow will be .
, % of the Moon is Illuminated

Today's Extremes

State Highs State Lows

Community

WunderPhotos

Upload Photos

1,927,951 photos uploaded!

WunderBlog® & News

Nearby

Air Quality

  Air Quality AQ Index Pollutant
Not available.

Snow Depth

Station Depth Elevation

Earthquake Activity

City Distance Mag. Time & Date
Minimum magnitude displayed is 2.5.

Coastal Water Temperatures

Place Temperature

Stations

Nearby Weather Stations

Station Location Temp. Windchill Dew Point Humidity Wind Precip. Elev Updated Type
                   

Watches & Warnings

Flash Flood Watch
Issued: 2:33 PM CDT Jul. 27, 2016 – National Weather Service

... Flash Flood Watch in effect from 2 am EDT /1 am CDT/ Thursday
through Friday morning...

The National Weather Service in Louisville has issued a

* Flash Flood Watch for portions of central Kentucky... roughly
along and south of the Bluegrass Parkway.

* From 2 am EDT /1 am CDT/ Thursday through Friday morning

* rounds of showers and thunderstorms with intense rainfall rates
through Thursday night.

* Localized flash flooding is possible in and near the watch area.

Precautionary/preparedness actions...

A Flash Flood Watch means that conditions may develop that lead
to flash flooding. Flash flooding is a very dangerous situation.

You should monitor later forecasts and be prepared to take action
should flash flood warnings be issued.



Ras